createdAt,value
2018-08-07T00:04:07.507Z,95610.00
2018-08-07T00:09:40.995Z,95607.00
2018-08-07T00:15:11.771Z,95597.00
2018-08-07T00:20:41.125Z,95603.00
2018-08-07T00:26:11.491Z,95589.00
2018-08-07T00:31:40.776Z,95584.00
2018-08-07T00:37:10.113Z,95581.00
2018-08-07T00:42:39.592Z,95582.00
2018-08-07T00:48:08.875Z,95578.00
2018-08-07T00:53:38.275Z,95576.00
2018-08-07T00:59:07.533Z,95586.00
2018-08-07T01:04:38.821Z,95575.00
2018-08-07T01:10:11.807Z,95581.00
2018-08-07T01:15:41.033Z,95593.00
2018-08-07T01:21:10.396Z,95591.00
2018-08-07T01:26:39.740Z,95595.00
2018-08-07T01:32:11.125Z,95601.00
2018-08-07T01:37:40.418Z,95597.00
2018-08-07T01:43:11.715Z,95588.00
2018-08-07T01:48:40.949Z,95589.00
2018-08-07T01:54:10.255Z,95590.00
2018-08-07T01:59:39.479Z,95588.00
2018-08-07T02:05:20.978Z,95588.00
2018-08-07T02:10:50.376Z,95577.00
2018-08-07T02:16:19.837Z,95591.00
2018-08-07T02:21:49.303Z,95586.00
2018-08-07T02:27:18.624Z,95587.00
2018-08-07T02:32:47.975Z,95581.00
2018-08-07T02:38:17.231Z,95569.00
2018-08-07T02:43:47.360Z,95580.00
2018-08-07T02:49:16.578Z,95581.00
2018-08-07T02:54:46.139Z,95584.00
2018-08-07T03:00:20.850Z,95576.00
2018-08-07T03:05:49.919Z,95594.00
2018-08-07T03:11:19.188Z,95595.00
2018-08-07T03:16:48.613Z,95583.00
2018-08-07T03:22:17.921Z,95589.00
2018-08-07T03:27:47.189Z,95601.00
2018-08-07T03:33:16.455Z,95596.00
2018-08-07T03:38:51.307Z,95599.00
2018-08-07T03:44:20.730Z,95596.00
2018-08-07T03:49:51.264Z,95596.00
2018-08-07T03:55:20.681Z,95588.00
2018-08-07T04:00:51.213Z,95593.00
2018-08-07T04:06:20.715Z,95599.00
2018-08-07T04:11:51.310Z,95602.00
2018-08-07T04:17:20.696Z,95608.00
2018-08-07T04:22:50.259Z,95616.00
2018-08-07T04:28:20.981Z,95610.00
2018-08-07T04:33:51.149Z,95607.00
2018-08-07T04:39:20.673Z,95606.00
2018-08-07T04:44:50.072Z,95609.00
2018-08-07T04:50:19.488Z,95610.00
2018-08-07T04:55:48.771Z,95610.00
2018-08-07T05:01:18.252Z,95616.00
2018-08-07T05:06:48.514Z,95610.00
2018-08-07T05:12:17.896Z,95612.00
2018-08-07T05:17:48.129Z,95615.00
2018-08-07T05:23:17.554Z,95622.00
2018-08-07T05:28:46.956Z,95622.00
2018-08-07T05:34:16.167Z,95637.00
2018-08-07T05:39:45.445Z,95639.00
2018-08-07T05:45:16.573Z,95635.00
2018-08-07T05:50:48.305Z,95636.00
2018-08-07T05:56:17.489Z,95637.00
2018-08-07T06:01:50.306Z,95636.00
2018-08-07T06:07:19.617Z,95630.00
2018-08-07T06:12:49.381Z,95629.00
2018-08-07T06:18:18.861Z,95637.00
2018-08-07T06:23:48.190Z,95635.00
2018-08-07T06:29:17.618Z,95624.00
2018-08-07T06:34:46.884Z,95622.00
2018-08-07T06:40:16.195Z,95625.00
2018-08-07T06:45:45.493Z,95630.00
2018-08-07T06:51:14.738Z,95627.00
2018-08-07T06:56:44.946Z,95628.00
2018-08-07T07:02:14.269Z,95626.00
2018-08-07T07:07:43.636Z,95630.00
2018-08-07T07:13:12.872Z,95630.00
2018-08-07T07:18:42.289Z,95636.00
2018-08-07T07:24:13.688Z,95629.00
2018-08-07T07:29:42.691Z,95630.00
2018-08-07T07:35:16.209Z,95623.00
2018-08-07T07:40:45.559Z,95622.00
2018-08-07T07:46:14.850Z,95623.00
2018-08-07T07:51:44.225Z,95626.00
2018-08-07T07:57:13.532Z,95621.00
2018-08-07T08:02:42.829Z,95627.00
2018-08-07T08:08:12.134Z,95623.00
2018-08-07T08:13:41.388Z,95630.00
2018-08-07T08:19:10.671Z,95623.00
2018-08-07T08:24:39.892Z,95620.00
2018-08-07T08:30:12.934Z,95617.00
2018-08-07T08:35:42.647Z,95614.00
2018-08-07T08:41:11.835Z,95616.00
2018-08-07T08:46:41.171Z,95618.00
2018-08-07T08:52:10.443Z,95618.00
2018-08-07T08:57:43.161Z,95615.00
2018-08-07T09:03:12.419Z,95620.00
2018-08-07T09:08:42.004Z,95622.00
2018-08-07T09:14:11.266Z,95624.00
2018-08-07T09:19:40.610Z,95622.00
2018-08-07T09:25:10.466Z,95616.00
2018-08-07T09:30:39.710Z,95618.00
2018-08-07T09:36:09.608Z,95617.00
2018-08-07T09:41:39.068Z,95606.00
2018-08-07T09:47:08.540Z,95613.00
2018-08-07T09:52:37.899Z,95609.00
2018-08-07T09:58:07.635Z,95602.00
2018-08-07T10:03:36.919Z,95601.00
2018-08-07T10:09:09.359Z,95594.00
2018-08-07T10:14:38.688Z,95600.00
2018-08-07T10:20:09.253Z,95583.00
2018-08-07T10:25:38.654Z,95576.00
2018-08-07T10:31:09.252Z,95571.00
2018-08-07T10:36:38.526Z,95568.00
2018-08-07T10:42:07.899Z,95563.00
2018-08-07T10:47:37.304Z,95565.00
2018-08-07T10:53:06.786Z,95552.00
2018-08-07T10:58:36.019Z,95563.00
2018-08-07T11:04:05.203Z,95558.00
2018-08-07T11:09:34.487Z,95561.00
2018-08-07T11:15:04.215Z,95553.00
2018-08-07T11:20:33.667Z,95549.00
2018-08-07T11:26:03.084Z,95540.00
2018-08-07T11:31:32.432Z,95541.00
2018-08-07T11:37:01.707Z,95528.00
2018-08-07T11:42:30.966Z,95524.00
2018-08-07T11:48:00.349Z,95532.00
2018-08-07T11:53:29.556Z,95528.00
2018-08-07T11:58:58.844Z,95528.00
2018-08-07T12:04:27.878Z,95514.00
2018-08-07T12:09:57.168Z,95515.00
2018-08-07T12:15:26.898Z,95519.00
2018-08-07T12:20:56.313Z,95506.00
2018-08-07T12:26:26.243Z,95505.00
2018-08-07T12:31:56.564Z,95497.00
2018-08-07T12:37:26.077Z,95497.00
2018-08-07T12:42:57.659Z,95493.00
2018-08-07T12:48:26.923Z,95501.00
2018-08-07T12:53:56.275Z,95502.00
2018-08-07T12:59:25.728Z,95505.00
2018-08-07T13:04:56.676Z,95518.00
2018-08-07T13:10:26.526Z,95519.00
2018-08-07T13:15:55.916Z,95546.00
2018-08-07T13:21:25.392Z,95546.00
2018-08-07T13:26:54.860Z,95597.00
2018-08-07T13:32:24.309Z,95576.00
2018-08-07T13:37:54.253Z,95566.00
2018-08-07T13:43:23.579Z,95553.00
2018-08-07T13:48:53.004Z,95552.00
2018-08-07T13:54:22.789Z,95556.00
2018-08-07T13:59:52.142Z,95554.00
2018-08-07T14:05:22.171Z,95544.00
2018-08-07T14:10:51.511Z,95547.00
2018-08-07T14:16:20.914Z,95525.00
2018-08-07T14:21:50.263Z,95521.00
2018-08-07T14:27:19.624Z,95515.00
2018-08-07T14:32:49.103Z,95509.00
2018-08-07T14:38:18.417Z,95500.00
2018-08-07T14:43:47.687Z,95501.00
2018-08-07T14:49:16.982Z,95504.00
2018-08-07T14:54:46.263Z,95495.00
2018-08-07T15:00:19.853Z,95477.00
2018-08-07T15:05:49.180Z,95501.00
2018-08-07T15:11:18.789Z,95501.00
2018-08-07T15:16:52.902Z,95503.00
2018-08-07T15:22:22.400Z,95515.00
2018-08-07T15:27:52.040Z,95533.00
2018-08-07T15:33:21.571Z,95522.00
2018-08-07T15:38:51.008Z,95517.00
2018-08-07T15:44:20.504Z,95521.00
2018-08-07T15:49:49.934Z,95529.00
2018-08-07T15:55:21.694Z,95523.00
2018-08-07T16:00:51.391Z,95514.00
2018-08-07T16:06:20.999Z,95506.00
2018-08-07T16:11:50.552Z,95500.00
2018-08-07T16:17:19.984Z,95501.00
2018-08-07T16:22:49.444Z,95492.00
2018-08-07T16:28:23.040Z,95480.00
2018-08-07T16:33:52.479Z,95473.00
2018-08-07T16:39:22.275Z,95471.00
2018-08-07T16:44:51.833Z,95463.00
2018-08-07T16:50:26.337Z,95468.00
2018-08-07T16:55:55.719Z,95465.00
2018-08-07T17:01:25.549Z,95464.00
2018-08-07T17:06:55.437Z,95459.00
2018-08-07T17:12:24.850Z,95469.00
2018-08-07T17:17:54.417Z,95451.00
2018-08-07T17:23:23.907Z,95466.00
2018-08-07T17:28:53.402Z,95466.00
2018-08-07T17:34:22.877Z,95463.00
2018-08-07T17:39:52.297Z,95460.00
2018-08-07T17:45:21.937Z,95467.00
2018-08-07T17:50:51.394Z,95468.00
2018-08-07T17:56:21.051Z,95469.00
2018-08-07T18:01:50.581Z,95468.00
2018-08-07T18:07:20.045Z,95471.00
2018-08-07T18:12:49.933Z,95463.00
2018-08-07T18:18:19.282Z,95450.00
2018-08-07T18:23:49.294Z,95442.00
2018-08-07T18:29:20.736Z,95439.00
2018-08-07T18:34:55.960Z,95450.00
2018-08-07T18:40:25.469Z,95450.00
2018-08-07T18:45:55.823Z,95446.00
2018-08-07T18:51:25.200Z,95441.00
2018-08-07T18:56:54.579Z,95434.00
2018-08-07T19:02:23.990Z,95431.00
2018-08-07T19:07:54.379Z,95437.00
2018-08-07T19:13:23.975Z,95432.00
2018-08-07T19:18:53.689Z,95432.00
2018-08-07T19:24:23.302Z,95428.00
2018-08-07T19:29:52.635Z,95423.00
2018-08-07T19:35:22.143Z,95424.00
2018-08-07T19:40:51.884Z,95416.00
2018-08-07T19:46:21.736Z,95417.00
2018-08-07T19:51:51.148Z,95419.00
2018-08-07T19:57:20.564Z,95427.00
2018-08-07T20:02:50.395Z,95426.00
2018-08-07T20:08:19.914Z,95441.00
2018-08-07T20:13:50.440Z,95438.00
2018-08-07T20:19:19.945Z,95448.00
2018-08-07T20:24:51.700Z,95447.00
2018-08-07T20:30:24.382Z,95434.00
2018-08-07T20:35:54.482Z,95440.00
2018-08-07T20:41:23.905Z,95438.00
2018-08-07T20:46:54.507Z,95429.00
2018-08-07T20:52:23.870Z,95432.00
2018-08-07T20:57:53.259Z,95430.00
2018-08-07T21:03:22.790Z,95423.00
2018-08-07T21:08:52.276Z,95434.00
2018-08-07T21:14:21.856Z,95421.00
2018-08-07T21:19:51.348Z,95426.00
2018-08-07T21:25:22.862Z,95429.00
2018-08-07T21:30:52.483Z,95431.00
2018-08-07T21:36:21.900Z,95439.00
2018-08-07T21:41:51.386Z,95434.00
2018-08-07T21:47:20.895Z,95441.00
2018-08-07T21:52:50.489Z,95438.00
2018-08-07T21:58:19.849Z,95441.00
2018-08-07T22:03:49.282Z,95434.00
2018-08-07T22:09:18.620Z,95438.00
2018-08-07T22:14:47.991Z,95430.00
2018-08-07T22:20:17.285Z,95427.00
2018-08-07T22:25:46.651Z,95427.00
2018-08-07T22:31:15.901Z,95415.00
2018-08-07T22:36:45.367Z,95428.00
2018-08-07T22:42:15.549Z,95430.00
2018-08-07T22:47:44.678Z,95421.00
2018-08-07T22:53:14.715Z,95422.00
2018-08-07T22:58:44.259Z,95419.00
2018-08-07T23:04:13.977Z,95419.00
2018-08-07T23:09:43.493Z,95415.00
2018-08-07T23:15:15.648Z,95423.00
2018-08-07T23:20:44.911Z,95422.00
2018-08-07T23:26:14.387Z,95423.00
2018-08-07T23:31:43.756Z,95427.00
2018-08-07T23:37:13.036Z,95419.00
2018-08-07T23:42:44.771Z,95403.00
2018-08-07T23:48:14.211Z,95412.00
2018-08-07T23:53:43.516Z,95394.00
2018-08-07T23:59:12.822Z,95389.00
